createdAt,value
2023-04-16T00:03:41.992Z,6.10
2023-04-16T00:08:44.889Z,8.90
2023-04-16T00:13:47.598Z,6.70
2023-04-16T00:18:50.594Z,6.50
2023-04-16T00:23:53.633Z,7.70
2023-04-16T00:28:56.307Z,6.80
2023-04-16T00:33:59.664Z,8.80
2023-04-16T00:39:02.423Z,6.40
2023-04-16T00:44:05.334Z,9.30
2023-04-16T00:49:08.443Z,9.30
2023-04-16T00:54:11.730Z,7.90
2023-04-16T00:59:14.937Z,6.50
2023-04-16T01:09:20.386Z,7.30
2023-04-16T01:14:23.126Z,6.80
2023-04-16T01:19:26.182Z,7.10
2023-04-16T01:24:28.950Z,8.50
2023-04-16T01:29:31.660Z,8.80
2023-04-16T01:34:34.375Z,8.80
2023-04-16T01:39:37.066Z,6.10
2023-04-16T01:44:40.391Z,6.30
2023-04-16T01:49:45.769Z,9.00
2023-04-16T01:54:48.528Z,8.90
2023-04-16T01:59:51.318Z,6.80
2023-04-16T02:04:54.001Z,7.80
2023-04-16T02:09:58.027Z,9.70
2023-04-16T02:15:00.750Z,6.00
2023-04-16T02:20:05.807Z,6.70
2023-04-16T02:25:08.613Z,8.00
2023-04-16T02:30:12.347Z,8.70
2023-04-16T02:35:15.123Z,9.00
2023-04-16T02:40:17.925Z,7.00
2023-04-16T02:45:21.287Z,6.60
2023-04-16T02:50:24.044Z,7.00
2023-04-16T02:55:26.901Z,9.60
2023-04-16T03:00:29.862Z,6.60
2023-04-16T03:05:32.581Z,7.60
2023-04-16T03:10:36.379Z,6.00
2023-04-16T03:15:39.141Z,6.10
2023-04-16T03:20:41.944Z,5.10
2023-04-16T03:25:48.130Z,5.20
2023-04-16T03:30:52.975Z,8.20
2023-04-16T03:35:57.323Z,7.50
2023-04-16T03:41:00.196Z,5.30
2023-04-16T03:46:02.962Z,6.40
2023-04-16T03:51:05.950Z,7.50
2023-04-16T03:56:08.667Z,8.10
2023-04-16T04:01:11.435Z,5.90
2023-04-16T04:06:14.180Z,11.50
2023-04-16T04:11:16.907Z,7.00
2023-04-16T04:16:19.701Z,6.80
2023-04-16T04:21:22.535Z,8.40
2023-04-16T04:26:25.563Z,4.80
2023-04-16T04:31:28.558Z,6.80
2023-04-16T04:36:31.289Z,6.90
2023-04-16T04:41:33.981Z,5.70
2023-04-16T04:46:36.758Z,6.70
2023-04-16T04:51:39.474Z,5.80
2023-04-16T04:56:42.236Z,5.90
2023-04-16T05:01:44.933Z,6.90
2023-04-16T05:06:47.754Z,7.30
2023-04-16T05:11:50.439Z,6.50
2023-04-16T05:16:54.228Z,7.40
2023-04-16T05:21:57.085Z,8.60
2023-04-16T05:26:59.988Z,5.50
2023-04-16T05:32:02.995Z,7.70
2023-04-16T05:37:05.908Z,5.20
2023-04-16T05:42:09.117Z,5.00
2023-04-16T05:47:12.095Z,9.10
2023-04-16T05:52:15.521Z,8.10
2023-04-16T05:57:18.258Z,5.60
2023-04-16T06:02:21.231Z,9.80
2023-04-16T06:12:27.242Z,11.60
2023-04-16T06:17:29.969Z,9.40
2023-04-16T06:22:32.845Z,10.30
2023-04-16T06:27:35.854Z,8.60
2023-04-16T06:32:38.777Z,6.20
2023-04-16T06:37:41.766Z,8.40
2023-04-16T06:42:45.625Z,9.30
2023-04-16T06:47:48.703Z,11.00
2023-04-16T06:52:51.492Z,8.40
2023-04-16T06:57:54.192Z,6.50
2023-04-16T07:02:58.656Z,9.60
2023-04-16T07:08:01.739Z,5.70
2023-04-16T07:13:04.541Z,9.40
2023-04-16T07:18:07.318Z,9.80
2023-04-16T07:23:10.124Z,10.90
2023-04-16T07:28:13.263Z,10.50
2023-04-16T07:38:18.599Z,6.60
2023-04-16T07:43:25.453Z,5.40
2023-04-16T07:48:28.181Z,5.00
2023-04-16T07:53:31.455Z,8.80
2023-04-16T07:58:34.107Z,7.90
2023-04-16T08:03:37.073Z,4.10
2023-04-16T08:08:40.019Z,3.80
2023-04-16T08:13:42.838Z,3.50
2023-04-16T08:18:45.672Z,6.40
2023-04-16T08:23:48.574Z,7.40
2023-04-16T08:28:51.266Z,6.80
2023-04-16T08:33:54.157Z,4.90
2023-04-16T08:44:03.477Z,7.10
2023-04-16T08:49:08.074Z,10.70
2023-04-16T08:54:15.395Z,9.10
2023-04-16T08:59:19.108Z,10.80
2023-04-16T09:04:23.621Z,8.70
2023-04-16T09:09:27.028Z,7.20
2023-04-16T09:14:29.850Z,7.90
2023-04-16T09:19:32.592Z,14.30
2023-04-16T09:24:35.700Z,10.10
2023-04-16T09:34:55.747Z,7.60
2023-04-16T09:40:06.670Z,7.50
2023-04-16T09:45:10.015Z,9.00
2023-04-16T09:50:18.587Z,8.40
2023-04-16T09:55:27.699Z,6.70
2023-04-16T10:00:31.706Z,6.30
2023-04-16T10:05:34.675Z,11.90
2023-04-16T10:10:38.173Z,9.80
2023-04-16T10:15:40.987Z,7.60
2023-04-16T10:20:44.493Z,20.10
2023-04-16T10:25:49.358Z,10.40
2023-04-16T10:30:53.098Z,6.30
2023-04-16T10:36:13.676Z,15.70
2023-04-16T10:41:16.789Z,9.40
2023-04-16T10:51:32.768Z,13.60
2023-04-16T10:56:36.830Z,12.00
2023-04-16T11:01:44.419Z,8.50
2023-04-16T11:07:13.888Z,6.50
2023-04-16T11:12:23.430Z,11.40
2023-04-16T11:17:31.015Z,15.50
2023-04-16T11:22:39.293Z,16.60
2023-04-16T11:27:41.979Z,9.60
2023-04-16T11:32:45.416Z,11.80
2023-04-16T11:37:51.201Z,10.60
2023-04-16T11:42:53.865Z,15.10
2023-04-16T11:47:58.040Z,10.50
2023-04-16T11:53:05.906Z,8.40
2023-04-16T11:58:13.081Z,12.20
2023-04-16T12:03:16.576Z,11.60
2023-04-16T12:08:32.987Z,10.10
2023-04-16T12:13:40.058Z,12.70
2023-04-16T12:19:01.296Z,10.80
2023-04-16T12:24:04.839Z,15.00
2023-04-16T12:29:27.979Z,10.70
2023-04-16T12:34:48.376Z,11.50
2023-04-16T12:39:52.060Z,12.20
2023-04-16T12:44:54.750Z,12.90
2023-04-16T12:49:58.048Z,13.70
2023-04-16T12:55:02.774Z,10.20
2023-04-16T13:00:06.826Z,13.60
2023-04-16T13:05:10.274Z,9.70
2023-04-16T13:10:13.802Z,10.10
2023-04-16T13:15:16.794Z,12.90
2023-04-16T13:20:19.509Z,10.40
2023-04-16T13:25:22.815Z,11.90
2023-04-16T13:30:26.154Z,15.10
2023-04-16T13:35:29.397Z,12.70
2023-04-16T13:40:32.103Z,14.00
2023-04-16T13:45:34.993Z,10.60
2023-04-16T13:50:37.725Z,11.50
2023-04-16T13:55:40.454Z,12.00
2023-04-16T14:00:43.888Z,9.70
2023-04-16T14:05:46.752Z,9.70
2023-04-16T14:10:49.499Z,7.40
2023-04-16T14:15:55.864Z,7.10
2023-04-16T14:20:58.956Z,11.40
2023-04-16T14:31:04.690Z,16.00
2023-04-16T14:36:07.759Z,28.30
2023-04-16T14:46:17.742Z,20.30
2023-04-16T14:51:20.720Z,16.30
2023-04-16T14:56:23.410Z,17.00
2023-04-16T15:01:28.517Z,16.50
2023-04-16T15:06:36.726Z,11.00
2023-04-16T15:11:39.769Z,10.50
2023-04-16T15:16:42.695Z,10.30
2023-04-16T15:21:47.586Z,15.60
2023-04-16T15:26:51.585Z,21.10
2023-04-16T15:31:54.289Z,25.00
2023-04-16T15:36:57.063Z,18.30
2023-04-16T15:42:01.117Z,15.50
2023-04-16T15:47:06.524Z,21.00
2023-04-16T15:52:09.532Z,38.00
2023-04-16T16:02:15.705Z,18.40
2023-04-16T16:07:20.096Z,10.80
2023-04-16T16:12:23.214Z,17.00
2023-04-16T16:22:29.882Z,23.70
2023-04-16T16:27:32.600Z,20.70
2023-04-16T16:32:35.377Z,25.00
2023-04-16T16:37:38.495Z,18.40
2023-04-16T16:47:43.994Z,22.40
2023-04-16T16:52:46.718Z,19.20
2023-04-16T16:57:49.663Z,19.70
2023-04-16T17:02:52.808Z,23.30
2023-04-16T17:12:58.366Z,54.40
2023-04-16T17:18:01.177Z,38.30
2023-04-16T17:23:03.965Z,25.90
2023-04-16T17:28:06.763Z,17.70
2023-04-16T17:33:09.574Z,29.50
2023-04-16T17:38:12.283Z,25.80
2023-04-16T17:43:15.020Z,28.10
2023-04-16T17:48:17.780Z,27.00
2023-04-16T17:53:23.314Z,24.50
2023-04-16T17:58:26.713Z,22.00
2023-04-16T18:03:29.949Z,26.10
2023-04-16T18:08:33.822Z,19.60
2023-04-16T18:13:36.774Z,22.60
2023-04-16T18:18:39.540Z,29.20
2023-04-16T18:23:42.316Z,23.40
2023-04-16T18:28:45.452Z,46.40
2023-04-16T18:39:02.461Z,27.10
2023-04-16T18:44:05.593Z,19.00
2023-04-16T18:49:08.384Z,17.40
2023-04-16T18:54:11.464Z,20.10
2023-04-16T18:59:14.260Z,17.90
2023-04-16T19:04:17.066Z,15.80
2023-04-16T19:09:20.374Z,19.60
2023-04-16T19:14:23.130Z,21.30
2023-04-16T19:19:25.808Z,19.10
2023-04-16T19:24:28.475Z,19.10
2023-04-16T19:29:34.543Z,15.90
2023-04-16T19:34:37.237Z,17.70
2023-04-16T19:39:40.357Z,27.40
2023-04-16T19:44:43.053Z,23.60
2023-04-16T19:49:46.208Z,21.80
2023-04-16T19:59:52.485Z,19.30
2023-04-16T20:04:56.621Z,18.90
2023-04-16T20:15:02.118Z,17.00
2023-04-16T20:20:10.297Z,18.30
2023-04-16T20:25:14.478Z,24.50
2023-04-16T20:30:17.319Z,21.40
2023-04-16T20:35:20.040Z,17.50
2023-04-16T20:40:24.139Z,22.10
2023-04-16T20:45:32.174Z,31.50
2023-04-16T20:50:35.044Z,28.10
2023-04-16T20:55:37.837Z,19.40
2023-04-16T21:00:40.829Z,26.50
2023-04-16T21:05:50.002Z,29.40
2023-04-16T21:10:52.856Z,30.80
2023-04-16T21:15:55.830Z,26.80
2023-04-16T21:20:59.228Z,33.10
2023-04-16T21:26:01.959Z,50.80
2023-04-16T21:31:04.698Z,80.70
2023-04-16T21:36:07.846Z,34.70
2023-04-16T21:41:10.822Z,37.20
2023-04-16T21:46:13.600Z,49.10
2023-04-16T21:51:16.785Z,32.60
2023-04-16T22:01:22.265Z,31.00
2023-04-16T22:06:27.172Z,23.50
2023-04-16T22:11:29.929Z,27.50
2023-04-16T22:16:33.554Z,30.10
2023-04-16T22:21:36.416Z,27.50
2023-04-16T22:26:39.105Z,26.10
2023-04-16T22:31:41.959Z,26.30
2023-04-16T22:36:44.745Z,28.10
2023-04-16T22:41:47.715Z,27.90
2023-04-16T22:46:50.632Z,30.40
2023-04-16T22:51:53.430Z,24.00
2023-04-16T22:56:56.919Z,23.00
2023-04-16T23:01:59.683Z,22.20
2023-04-16T23:07:02.546Z,26.40
2023-04-16T23:12:05.851Z,25.90
2023-04-16T23:17:08.665Z,24.10
2023-04-16T23:22:11.574Z,22.70
2023-04-16T23:27:14.249Z,24.50
2023-04-16T23:32:16.945Z,23.60
2023-04-16T23:37:19.660Z,22.40
2023-04-16T23:42:22.363Z,22.30
2023-04-16T23:47:25.201Z,25.20
2023-04-16T23:52:28.068Z,18.50
2023-04-16T23:57:31.168Z,18.60
